Time;durP1;ratioP1;P1;durP2;ratioP2;P2;SDS_P1;SDS_P2;PMS_P1;PMS_P2;Temp;Humidity;BMP_temperature;BMP_pressure;BME280_temperature;BME280_humidity;BME280_pressure;Samples;Min_cycle;Max_cycle;Signal;HPM_P1;HPM_P2
2022/04/11 00:00:47;;;;;;;3.88;2.47;;;;;;;12.05;51.49;101794.66;5028588;28;20430;-55
2022/04/11 00:03:12;;;;;;;4.88;2.40;;;;;;;12.06;51.38;101795.53;5026024;28;20024;-56
2022/04/11 00:05:38;;;;;;;4.90;2.45;;;;;;;12.05;51.46;101793.81;5027817;28;20017;-56
2022/04/11 00:08:03;;;;;;;3.42;2.22;;;;;;;12.05;51.54;101789.50;5024766;28;20041;-56
2022/04/11 00:10:29;;;;;;;5.15;2.55;;;;;;;12.05;51.58;101784.34;5023701;28;20461;-55
2022/04/11 00:13:05;;;;;;;5.07;2.63;;;;;;;12.05;51.50;101781.75;5022394;28;20052;-56
2022/04/11 00:15:33;;;;;;;4.68;2.78;;;;;;;12.04;51.58;101774.81;5025549;28;20143;-56
2022/04/11 00:18:02;;;;;;;4.45;2.63;;;;;;;12.05;51.47;101776.59;5025212;28;20048;-55
2022/04/11 00:20:28;;;;;;;4.10;2.50;;;;;;;12.03;51.54;101775.63;5029661;28;20056;-55
2022/04/11 00:22:53;;;;;;;4.80;2.70;;;;;;;12.04;51.55;101776.53;5030611;28;20100;-53
2022/04/11 00:25:19;;;;;;;3.83;2.58;;;;;;;12.04;51.47;101777.41;5024175;28;20101;-53
2022/04/11 00:27:44;;;;;;;4.88;3.00;;;;;;;12.04;51.49;101773.94;5025645;28;20041;-56
2022/04/11 00:30:10;;;;;;;5.38;2.92;;;;;;;12.02;51.28;101772.19;5024258;28;20032;-53
2022/04/11 00:32:40;;;;;;;4.57;2.67;;;;;;;12.03;51.65;101765.31;5024824;28;20092;-52
2022/04/11 00:35:06;;;;;;;4.55;2.75;;;;;;;12.01;51.49;101757.50;5023971;28;20034;-52
2022/04/11 00:37:32;;;;;;;4.28;2.85;;;;;;;12.01;51.57;101751.47;5026040;28;20057;-55
2022/04/11 00:39:57;;;;;;;4.72;2.60;;;;;;;12.01;51.44;101760.06;5021568;28;20112;-53
2022/04/11 00:42:27;;;;;;;4.88;2.88;;;;;;;12.02;51.33;101758.41;5026248;28;20116;-53
2022/04/11 00:44:53;;;;;;;3.85;2.45;;;;;;;12.02;51.43;101751.50;5024711;28;20445;-55
2022/04/11 00:47:19;;;;;;;6.13;3.38;;;;;;;12.01;51.54;101749.75;5025969;28;20106;-55
2022/04/11 00:49:46;;;;;;;5.28;3.00;;;;;;;12.02;51.58;101750.66;5022356;28;20454;-52
2022/04/11 00:52:12;;;;;;;4.97;3.07;;;;;;;12.02;51.57;101745.47;5025534;28;20041;-54
2022/04/11 00:54:38;;;;;;;4.45;2.90;;;;;;;12.01;51.22;101741.13;5030030;28;20057;-53
2022/04/11 00:57:04;;;;;;;5.50;3.17;;;;;;;12.02;51.43;101737.72;5024114;28;20041;-56
2022/04/11 00:59:30;;;;;;;5.90;3.25;;;;;;;12.00;51.58;101744.53;5023699;28;20104;-56
2022/04/11 01:01:55;;;;;;;4.82;3.33;;;;;;;12.00;51.55;101744.53;5030312;28;20509;-55
2022/04/11 01:04:23;;;;;;;4.63;2.88;;;;;;;12.01;51.57;101735.97;5023367;28;20383;-55
2022/04/11 01:06:55;;;;;;;5.30;2.83;;;;;;;12.00;51.27;101739.34;5027201;28;20472;-56
2022/04/11 01:09:22;;;;;;;4.57;3.05;;;;;;;12.00;51.33;101734.19;5024366;28;20072;-55
2022/04/11 01:11:48;;;;;;;5.30;3.22;;;;;;;12.00;51.46;101736.78;5027886;28;20107;-55
2022/04/11 01:14:14;;;;;;;5.72;3.30;;;;;;;11.99;51.39;101732.41;5034153;28;20136;-54
2022/04/11 01:16:39;;;;;;;5.43;2.95;;;;;;;11.99;51.18;101729.84;5023499;28;20052;-56
2022/04/11 01:19:05;;;;;;;5.70;3.25;;;;;;;11.98;51.52;101725.50;5024971;28;20037;-56
2022/04/11 01:21:31;;;;;;;5.00;3.05;;;;;;;11.98;51.23;101723.81;5022508;28;20017;-55
2022/04/11 01:23:57;;;;;;;4.97;3.40;;;;;;;11.97;51.41;101729.78;5024209;28;20497;-54
2022/04/11 01:26:23;;;;;;;5.25;3.40;;;;;;;11.97;51.56;101727.22;5024528;28;20406;-55
2022/04/11 01:28:49;;;;;;;5.28;3.28;;;;;;;11.98;51.45;101722.91;5031491;28;20067;-52
2022/04/11 01:31:15;;;;;;;5.00;3.33;;;;;;;11.98;51.32;101726.38;5022954;28;20033;-52
2022/04/11 01:33:41;;;;;;;4.47;3.10;;;;;;;11.98;51.20;101728.97;5026568;28;20033;-51
2022/04/11 01:36:06;;;;;;;4.72;2.92;;;;;;;11.99;51.38;101732.41;5025992;28;20386;-56
2022/04/11 01:38:32;;;;;;;4.43;2.90;;;;;;;11.97;51.29;101721.16;5019624;28;20079;-55
2022/04/11 01:40:57;;;;;;;5.00;3.40;;;;;;;11.97;51.54;101729.78;5022877;28;20151;-52
2022/04/11 01:43:24;;;;;;;4.80;3.00;;;;;;;11.96;51.38;101730.59;5023470;28;20064;-54
2022/04/11 01:45:50;;;;;;;4.90;3.28;;;;;;;11.99;51.34;101727.25;5023889;28;20026;-56
2022/04/11 01:48:16;;;;;;;4.93;3.30;;;;;;;11.97;51.23;101728.91;5019321;28;20026;-56
2022/04/11 01:50:42;;;;;;;5.50;3.50;;;;;;;11.98;51.27;101725.50;5021732;28;20448;-53
2022/04/11 01:53:09;;;;;;;4.90;3.28;;;;;;;11.98;51.39;101725.50;5026116;28;20029;-52
2022/04/11 01:55:34;;;;;;;4.30;2.90;;;;;;;11.98;51.37;101725.50;5024685;28;20063;-55
2022/04/11 01:58:01;;;;;;;5.15;3.15;;;;;;;11.97;51.37;101729.78;5020681;28;20268;-56
2022/04/11 02:00:27;;;;;;;4.93;3.58;;;;;;;11.97;51.16;101716.00;5030789;28;20017;-53
2022/04/11 02:02:52;;;;;;;5.43;3.92;;;;;;;11.96;51.17;101717.69;5022748;28;20025;-53
2022/04/11 02:05:18;;;;;;;4.82;3.03;;;;;;;11.98;51.29;101717.75;5022661;28;20025;-55
2022/04/11 02:07:43;;;;;;;5.97;3.45;;;;;;;11.97;51.26;101716.00;5023391;28;20021;-53
2022/04/11 02:10:09;;;;;;;5.10;3.00;;;;;;;11.96;51.24;101715.09;5025414;28;20035;-55
2022/04/11 02:12:34;;;;;;;5.50;3.55;;;;;;;11.96;51.39;101716.81;5027068;28;20025;-55
2022/04/11 02:15:00;;;;;;;6.18;3.42;;;;;;;11.96;51.34;101719.41;5022479;28;20053;-56
2022/04/11 02:17:25;;;;;;;5.55;3.22;;;;;;;11.97;51.17;101718.59;5030915;28;20033;-55
2022/04/11 02:19:51;;;;;;;6.07;3.80;;;;;;;11.95;51.24;101715.91;5024733;28;20120;-53
2022/04/11 02:22:16;;;;;;;5.40;3.65;;;;;;;11.95;51.07;101721.09;5027425;28;20083;-52
2022/04/11 02:24:42;;;;;;;4.85;3.33;;;;;;;11.96;51.07;101719.41;5024555;28;20513;-52
2022/04/11 02:27:07;;;;;;;5.20;3.30;;;;;;;11.96;51.18;101716.81;5027745;28;20018;-55
2022/04/11 02:29:32;;;;;;;4.70;3.20;;;;;;;11.94;51.16;101713.25;5030764;28;20025;-55
2022/04/11 02:31:58;;;;;;;5.15;3.50;;;;;;;11.96;51.03;101722.00;5026630;28;20407;-52
2022/04/11 02:34:25;;;;;;;4.82;3.17;;;;;;;11.95;50.98;101721.09;5025490;28;20026;-53
2022/04/11 02:36:50;;;;;;;5.55;3.65;;;;;;;11.95;51.08;101715.03;5027415;28;20037;-56
2022/04/11 02:39:16;;;;;;;4.70;3.50;;;;;;;11.94;51.28;101721.00;5026317;28;20022;-53
2022/04/11 02:41:41;;;;;;;5.25;3.30;;;;;;;11.94;51.07;101714.16;5028237;28;20037;-56
2022/04/11 02:44:06;;;;;;;5.60;3.60;;;;;;;11.94;50.94;101718.41;5027056;28;20121;-55
2022/04/11 02:46:32;;;;;;;5.80;3.60;;;;;;;11.94;51.33;101718.41;5032561;28;20049;-55
2022/04/11 02:48:58;;;;;;;5.13;3.45;;;;;;;11.93;51.11;101717.56;5024338;28;20024;-54
2022/04/11 02:51:23;;;;;;;5.90;3.67;;;;;;;11.93;50.96;101714.97;5025790;28;20108;-55
2022/04/11 02:53:48;;;;;;;7.55;3.58;;;;;;;11.91;51.16;101713.16;5024610;28;20071;-53
2022/04/11 02:56:14;;;;;;;5.63;3.78;;;;;;;11.93;51.18;101714.06;5025581;28;20022;-57
2022/04/11 02:58:39;;;;;;;5.22;3.63;;;;;;;11.93;50.93;101716.66;5024695;28;20360;-56
2022/04/11 03:01:05;;;;;;;5.05;3.60;;;;;;;11.92;51.02;101710.63;5024724;28;20453;-56
2022/04/11 03:03:30;;;;;;;4.70;3.45;;;;;;;11.93;51.10;101707.22;5026280;28;20020;-53
2022/04/11 03:05:55;;;;;;;5.93;4.03;;;;;;;11.92;51.17;101699.41;5023596;28;20026;-56
2022/04/11 03:08:21;;;;;;;4.68;3.22;;;;;;;11.92;51.05;101702.00;5028941;28;20034;-55
2022/04/11 03:10:46;;;;;;;5.18;3.53;;;;;;;11.91;51.13;101702.81;5025686;28;20032;-54
2022/04/11 03:13:12;;;;;;;4.90;3.35;;;;;;;11.92;51.13;101702.00;5028697;28;20064;-56
2022/04/11 03:15:37;;;;;;;5.38;3.80;;;;;;;11.92;50.92;101699.41;5027164;28;20033;-56
2022/04/11 03:18:02;;;;;;;5.00;3.47;;;;;;;11.91;51.03;101700.22;5027079;28;20032;-53
2022/04/11 03:20:28;;;;;;;5.88;3.53;;;;;;;11.91;50.96;101702.81;5028319;28;20026;-55
2022/04/11 03:22:53;;;;;;;5.45;3.85;;;;;;;11.92;51.02;101702.00;5027407;28;20114;-52
2022/04/11 03:25:19;;;;;;;4.68;3.55;;;;;;;11.90;50.79;101703.63;5027033;28;20032;-55
2022/04/11 03:27:44;;;;;;;4.57;3.70;;;;;;;11.91;50.96;101700.22;5028173;28;20434;-55
2022/04/11 03:30:10;;;;;;;6.03;3.55;;;;;;;11.90;51.13;101701.06;5028824;28;20450;-56
2022/04/11 03:32:35;;;;;;;5.82;3.83;;;;;;;11.89;50.94;101702.75;5028608;28;20469;-54
2022/04/11 03:35:01;;;;;;;4.82;3.47;;;;;;;11.89;50.89;101705.34;5027357;28;20021;-56
2022/04/11 03:37:26;;;;;;;4.75;3.63;;;;;;;11.90;50.87;101708.78;5024026;28;20510;-55
2022/04/11 03:39:52;;;;;;;5.22;3.70;;;;;;;11.89;50.91;101702.75;5027715;28;20028;-56
2022/04/11 03:42:17;;;;;;;4.00;3.25;;;;;;;11.89;50.87;101699.28;5027140;28;20021;-56
2022/04/11 03:44:42;;;;;;;5.63;3.53;;;;;;;11.88;50.79;101703.59;5027445;28;20030;-56
2022/04/11 03:47:08;;;;;;;5.15;3.60;;;;;;;11.89;50.96;101704.44;5026024;28;20443;-55
2022/04/11 03:49:34;;;;;;;5.60;3.40;;;;;;;11.88;50.75;101700.09;5020502;28;20056;-57
2022/04/11 03:51:59;;;;;;;4.60;3.72;;;;;;;11.89;50.65;101701.88;5024952;28;20025;-54
2022/04/11 03:54:24;;;;;;;4.55;3.20;;;;;;;11.88;50.71;101702.69;5024527;28;20071;-56
2022/04/11 03:56:50;;;;;;;4.93;3.60;;;;;;;11.88;50.99;101707.84;5028605;28;20115;-53
2022/04/11 03:59:15;;;;;;;5.95;3.60;;;;;;;11.89;50.71;101704.44;5025033;28;20037;-55
2022/04/11 04:01:40;;;;;;;5.22;3.80;;;;;;;11.89;50.68;101709.63;5025926;28;20028;-56
2022/04/11 04:04:06;;;;;;;6.22;4.05;;;;;;;11.87;50.87;101706.97;5023700;28;20101;-51
2022/04/11 04:06:31;;;;;;;5.13;3.72;;;;;;;11.86;50.74;101700.03;5025762;28;20930;-52
2022/04/11 04:08:57;;;;;;;5.25;3.88;;;;;;;11.86;50.64;101700.94;5024988;28;20029;-52
2022/04/11 04:11:22;;;;;;;4.70;3.67;;;;;;;11.85;50.75;101704.34;5025972;28;20100;-52
2022/04/11 04:13:48;;;;;;;5.57;3.95;;;;;;;11.86;50.75;101702.63;5023527;28;20095;-54
2022/04/11 04:16:13;;;;;;;5.32;3.70;;;;;;;11.85;50.85;101703.44;5029992;28;20709;-54
2022/04/11 04:18:38;;;;;;;5.65;3.78;;;;;;;11.85;50.36;101700.84;5026265;28;20021;-54
2022/04/11 04:21:04;;;;;;;5.00;3.63;;;;;;;11.84;50.74;101697.41;5025225;28;20057;-56
2022/04/11 04:23:30;;;;;;;5.35;3.60;;;;;;;11.84;50.67;101689.66;5022970;28;20458;-53
2022/04/11 04:25:56;;;;;;;6.47;4.20;;;;;;;11.84;50.66;101687.09;5026494;28;20025;-55
2022/04/11 04:28:22;;;;;;;5.13;3.72;;;;;;;11.84;50.54;101687.09;5024276;28;20086;-53
2022/04/11 04:30:47;;;;;;;5.10;3.65;;;;;;;11.84;50.77;101687.09;5027650;28;20389;-55
2022/04/11 04:33:12;;;;;;;5.18;3.70;;;;;;;11.84;50.60;101687.09;5027389;28;20021;-56
2022/04/11 04:35:38;;;;;;;5.63;3.70;;;;;;;11.83;50.44;101693.06;5025394;28;20374;-55
2022/04/11 04:38:04;;;;;;;5.15;3.53;;;;;;;11.84;50.72;101686.22;5022741;28;20072;-54
2022/04/11 04:40:29;;;;;;;5.93;3.95;;;;;;;11.82;50.46;101678.38;5024102;28;20048;-52
2022/04/11 04:42:55;;;;;;;5.55;3.75;;;;;;;11.83;50.51;101685.31;5046806;28;20021;-54
2022/04/11 04:45:20;;;;;;;6.53;3.90;;;;;;;11.82;50.29;101683.53;5025064;28;20053;-55
2022/04/11 04:47:46;;;;;;;5.78;3.78;;;;;;;11.83;50.60;101684.44;5022971;28;20091;-56
2022/04/11 04:50:11;;;;;;;5.57;3.83;;;;;;;11.82;50.47;101685.25;5026927;28;20289;-52
2022/04/11 04:52:38;;;;;;;5.13;3.42;;;;;;;11.81;50.44;101681.81;5026934;28;20094;-52
2022/04/11 04:55:04;;;;;;;5.85;3.85;;;;;;;11.80;50.35;101680.03;5021893;28;20152;-57
2022/04/11 04:57:30;;;;;;;4.95;3.60;;;;;;;11.82;50.44;101683.53;5023081;28;20044;-52
2022/04/11 04:59:55;;;;;;;4.93;3.63;;;;;;;11.82;50.42;101678.38;5023612;28;20358;-55
2022/04/11 05:02:21;;;;;;;6.47;3.83;;;;;;;11.81;50.03;101680.91;5024743;28;20434;-53
2022/04/11 05:04:46;;;;;;;4.90;3.38;;;;;;;11.81;50.44;101678.31;5024319;28;20022;-57
2022/04/11 05:07:12;;;;;;;5.88;3.60;;;;;;;11.80;50.42;101677.47;5021922;28;20013;-56
2022/04/11 05:09:37;;;;;;;5.45;3.55;;;;;;;11.81;50.21;101676.66;5032750;28;20037;-54
2022/04/11 05:12:03;;;;;;;6.28;3.83;;;;;;;11.81;50.28;101675.75;5027902;28;20076;-54
2022/04/11 05:14:28;;;;;;;5.85;4.05;;;;;;;11.79;50.31;101667.94;5025620;28;20050;-52
2022/04/11 05:16:54;;;;;;;5.00;3.75;;;;;;;11.79;50.42;101672.25;5021765;28;20037;-53
2022/04/11 05:19:19;;;;;;;5.22;3.95;;;;;;;11.79;50.36;101672.25;5021155;28;20017;-55
2022/04/11 05:21:44;;;;;;;4.55;3.38;;;;;;;11.79;50.14;101673.09;5026329;28;20025;-57
2022/04/11 05:24:10;;;;;;;5.93;3.67;;;;;;;11.79;50.19;101669.66;5027436;28;20025;-56
2022/04/11 05:26:35;;;;;;;5.28;3.70;;;;;;;11.78;50.10;101668.75;5025298;28;20021;-51
2022/04/11 05:29:00;;;;;;;5.22;3.58;;;;;;;11.79;50.29;101669.66;5024729;28;20035;-54
2022/04/11 05:31:26;;;;;;;6.35;4.00;;;;;;;11.78;50.19;101671.34;5025321;28;20027;-55
2022/04/11 05:33:51;;;;;;;4.60;3.33;;;;;;;11.77;50.22;101672.16;5026586;28;20033;-53
2022/04/11 05:36:17;;;;;;;5.70;3.83;;;;;;;11.77;50.17;101674.75;5026230;28;20014;-56
2022/04/11 05:38:42;;;;;;;6.32;4.05;;;;;;;11.78;50.02;101676.50;5023130;28;20029;-55
2022/04/11 05:41:08;;;;;;;5.20;3.80;;;;;;;11.78;50.01;101673.06;5024268;28;20017;-54
2022/04/11 05:43:33;;;;;;;4.45;3.55;;;;;;;11.78;50.17;101676.50;5018075;28;20434;-57
2022/04/11 05:46:02;;;;;;;5.53;3.70;;;;;;;11.79;50.16;101680.00;5022080;28;20024;-54
2022/04/11 05:48:30;;;;;;;5.68;4.03;;;;;;;11.78;50.22;101675.66;5021404;28;20037;-54
2022/04/11 05:50:57;;;;;;;5.88;3.63;;;;;;;11.77;50.04;101679.03;5021597;28;20508;-53
2022/04/11 05:53:22;;;;;;;5.47;4.00;;;;;;;11.77;50.01;101672.16;5026233;28;20367;-55
2022/04/11 05:55:47;;;;;;;5.45;3.30;;;;;;;11.77;50.03;101677.31;5023891;28;20029;-56
2022/04/11 05:58:13;;;;;;;4.85;3.15;;;;;;;11.77;49.89;101674.75;5025704;28;20528;-55
2022/04/11 06:00:38;;;;;;;4.97;3.50;;;;;;;11.77;50.01;101679.91;5023521;28;20100;-51
2022/04/11 06:03:03;;;;;;;4.55;3.28;;;;;;;11.78;50.01;101673.06;5024803;28;20128;-54
2022/04/11 06:05:29;;;;;;;6.03;3.55;;;;;;;11.76;49.99;101673.00;5020968;28;20425;-55
2022/04/11 06:07:54;;;;;;;4.60;3.33;;;;;;;11.78;49.79;101671.34;5025515;28;20114;-56
2022/04/11 06:10:19;;;;;;;5.60;3.60;;;;;;;11.78;49.86;101670.47;5028220;28;20045;-56
2022/04/11 06:12:45;;;;;;;3.80;3.03;;;;;;;11.78;49.97;101665.31;5025047;28;20022;-55
2022/04/11 06:15:17;;;;;;;4.55;2.80;;;;;;;11.78;49.93;101670.47;5026362;28;20060;-54
2022/04/11 06:17:43;;;;;;;5.00;3.17;;;;;;;11.78;49.91;101671.34;5024108;28;20431;-54
2022/04/11 06:20:09;;;;;;;6.25;3.65;;;;;;;11.77;49.96;101677.31;5023629;28;20443;-56
2022/04/11 06:22:38;;;;;;;5.65;3.30;;;;;;;11.78;50.00;101668.75;5022886;28;20057;-53
2022/04/11 06:25:05;;;;;;;6.38;3.38;;;;;;;11.78;49.98;101671.34;5021240;28;20343;-53
2022/04/11 06:27:32;;;;;;;5.63;3.22;;;;;;;11.78;49.91;101678.22;5020989;28;21118;-56
2022/04/11 06:29:57;;;;;;;4.95;3.13;;;;;;;11.77;49.98;101679.91;5024260;28;20044;-55
2022/04/11 06:32:27;;;;;;;5.88;3.28;;;;;;;11.77;50.06;101672.16;5021430;28;20462;-56
2022/04/11 06:34:53;;;;;;;5.15;3.30;;;;;;;11.78;49.83;101671.34;5023615;28;20474;-56
2022/04/11 06:37:19;;;;;;;4.82;3.05;;;;;;;11.77;49.79;101669.56;5023164;28;20098;-55
2022/04/11 06:39:44;;;;;;;5.93;3.20;;;;;;;11.77;49.92;101671.28;5025465;28;20021;-52
2022/04/11 06:42:09;;;;;;;5.25;3.60;;;;;;;11.78;50.01;101675.66;5015449;28;20021;-59
2022/04/11 06:44:37;;;;;;;5.53;3.80;;;;;;;11.79;50.24;101678.28;5006541;28;20100;-55
2022/04/11 06:47:03;;;;;;;;;;;;;;;11.90;50.19;101675.22;5020148;28;20009;-50
2022/04/11 06:49:28;;;;;;;6.63;4.65;;;;;;;11.82;50.50;101674.94;5021013;28;20737;-52
2022/04/11 06:51:55;;;;;;;9.18;5.00;;;;;;;11.82;50.52;101677.50;5025724;28;20116;-50
2022/04/11 06:54:20;;;;;;;7.65;4.95;;;;;;;11.82;50.66;101688.72;5028833;28;20446;-50
2022/04/11 06:56:45;;;;;;;8.27;4.93;;;;;;;11.83;51.01;101687.91;5027155;28;20040;-54
2022/04/11 06:59:11;;;;;;;10.30;5.03;;;;;;;11.84;51.92;101684.50;5027929;28;20021;-50
2022/04/11 07:01:36;;;;;;;14.30;5.95;;;;;;;11.85;51.99;101699.19;5028278;28;20484;-53
2022/04/11 07:04:01;;;;;;;18.15;5.18;;;;;;;11.85;51.56;101688.84;5031745;28;20017;-53
2022/04/11 07:06:27;;;;;;;9.60;5.18;;;;;;;11.86;51.38;101685.44;5029871;28;20130;-54
2022/04/11 07:08:52;;;;;;;6.30;4.25;;;;;;;11.87;51.19;101696.66;5031347;28;20040;-53
2022/04/11 07:11:18;;;;;;;17.35;4.82;;;;;;;11.86;51.31;101685.44;5032530;28;20020;-56
2022/04/11 07:13:44;;;;;;;6.95;4.60;;;;;;;11.86;51.25;101680.28;5035499;28;20033;-51
2022/04/11 07:16:09;;;;;;;9.98;5.00;;;;;;;11.88;51.39;101682.91;5035264;28;20033;-54
2022/04/11 07:18:35;;;;;;;7.05;4.32;;;;;;;11.88;51.11;101671.69;5035932;28;20041;-55
2022/04/11 07:21:02;;;;;;;8.43;4.15;;;;;;;11.87;51.12;101670.81;5026631;28;20021;-55
2022/04/11 07:23:27;;;;;;;7.22;4.47;;;;;;;11.88;51.06;101662.25;5027002;28;20013;-51
2022/04/11 07:25:52;;;;;;;7.80;3.80;;;;;;;11.88;51.18;101672.59;5023877;28;20415;-51
2022/04/11 07:28:18;;;;;;;8.23;4.00;;;;;;;11.89;51.07;101665.69;5026039;28;20464;-54
2022/04/11 07:30:43;;;;;;;7.00;3.80;;;;;;;11.88;51.00;101662.25;5025918;28;20515;-54
2022/04/11 07:33:09;;;;;;;9.63;4.00;;;;;;;11.86;50.99;101662.19;5024008;28;20848;-53
2022/04/11 07:35:35;;;;;;;6.40;4.00;;;;;;;11.88;50.89;101663.94;5024693;28;20457;-51
2022/04/11 07:38:01;;;;;;;6.13;3.70;;;;;;;11.87;51.00;101660.47;5021118;28;20055;-56
2022/04/11 07:40:30;;;;;;;5.63;3.65;;;;;;;11.88;51.02;101662.25;5025757;28;20453;-51
2022/04/11 07:42:55;;;;;;;7.50;4.03;;;;;;;11.88;51.05;101656.19;5024671;28;20025;-51
2022/04/11 07:45:21;;;;;;;5.78;3.63;;;;;;;11.89;51.04;101652.78;5024005;28;20024;-56
2022/04/11 07:47:47;;;;;;;6.22;3.55;;;;;;;11.89;51.03;101645.03;5027469;28;20029;-51
2022/04/11 07:50:12;;;;;;;6.03;3.42;;;;;;;11.87;50.97;101645.00;5025559;28;20025;-52
2022/04/11 07:52:39;;;;;;;5.57;3.10;;;;;;;11.87;50.99;101645.00;5027813;28;20017;-51
2022/04/11 07:55:05;;;;;;;5.45;3.42;;;;;;;11.86;50.79;101643.22;5031544;28;20021;-54
2022/04/11 07:57:31;;;;;;;7.10;3.80;;;;;;;11.86;50.99;101646.69;5029958;28;20035;-54
2022/04/11 07:59:56;;;;;;;5.68;3.35;;;;;;;11.86;51.06;101646.69;5029109;28;20022;-54
2022/04/11 08:02:25;;;;;;;7.03;3.42;;;;;;;11.85;50.97;101644.94;5030223;28;20118;-51
2022/04/11 08:04:54;;;;;;;5.03;3.10;;;;;;;11.86;50.84;101638.94;5029598;28;20025;-53
2022/04/11 08:07:20;;;;;;;4.75;3.05;;;;;;;11.85;50.83;101639.78;5030246;28;20029;-52
2022/04/11 08:09:46;;;;;;;6.28;3.47;;;;;;;11.86;50.77;101630.31;5032774;28;20495;-55
2022/04/11 08:12:12;;;;;;;5.90;3.42;;;;;;;11.85;50.97;101626.84;5029180;28;20050;-54
2022/04/11 08:14:37;;;;;;;6.03;3.58;;;;;;;11.86;50.88;101635.47;5031027;28;20399;-52
2022/04/11 08:17:03;;;;;;;5.30;3.25;;;;;;;11.86;50.81;101620.88;5029157;28;20029;-51
2022/04/11 08:19:29;;;;;;;5.38;2.92;;;;;;;11.85;50.66;101621.69;5033019;28;20813;-55
2022/04/11 08:21:55;;;;;;;4.80;3.15;;;;;;;11.84;50.72;101614.75;5032184;28;20032;-52
2022/04/11 08:24:21;;;;;;;5.40;2.97;;;;;;;11.84;50.58;101613.88;5030964;28;20018;-54
2022/04/11 08:26:46;;;;;;;6.78;3.30;;;;;;;11.86;50.80;101612.22;5033977;28;20083;-51
2022/04/11 08:29:11;;;;;;;6.20;3.13;;;;;;;11.86;50.73;101620.88;5033276;28;20083;-55
2022/04/11 08:31:37;;;;;;;6.38;2.95;;;;;;;11.86;50.87;101618.28;5033896;28;20331;-53
2022/04/11 08:34:02;;;;;;;5.97;2.95;;;;;;;11.85;50.93;101616.53;5033229;28;20124;-53
2022/04/11 08:36:27;;;;;;;5.78;3.42;;;;;;;11.87;50.74;101619.16;5034729;28;20074;-52
2022/04/11 08:38:54;;;;;;;4.80;2.85;;;;;;;11.85;50.89;101616.53;5030430;28;20028;-51
2022/04/11 08:41:19;;;;;;;5.65;2.83;;;;;;;11.86;50.77;101612.22;5025115;28;20028;-56
2022/04/11 08:43:46;;;;;;;4.88;3.00;;;;;;;11.86;50.90;101604.47;5022744;28;20018;-52
2022/04/11 08:46:15;;;;;;;4.53;2.83;;;;;;;11.85;50.84;101611.34;5024732;28;20060;-52
2022/04/11 08:48:42;;;;;;;7.15;3.25;;;;;;;11.85;50.96;101608.78;5027828;28;20025;-55
2022/04/11 08:51:08;;;;;;;5.25;3.25;;;;;;;11.86;50.79;101607.97;5026103;28;20501;-52
2022/04/11 08:53:34;;;;;;;5.10;3.20;;;;;;;11.86;50.73;101604.47;5028939;28;20078;-52
2022/04/11 08:55:59;;;;;;;5.00;3.10;;;;;;;11.86;50.67;101600.22;5024897;28;20017;-55
2022/04/11 08:58:25;;;;;;;4.60;2.55;;;;;;;11.86;50.96;101599.31;5031252;28;20037;-54
2022/04/11 09:00:50;;;;;;;4.72;2.60;;;;;;;11.86;50.79;101602.78;5030527;28;20032;-54
2022/04/11 09:03:15;;;;;;;5.75;2.70;;;;;;;11.86;50.87;101596.72;5030913;28;20067;-55
2022/04/11 09:05:41;;;;;;;4.55;3.17;;;;;;;11.87;50.95;101608.81;5031137;28;20034;-52
2022/04/11 09:08:07;;;;;;;4.90;2.88;;;;;;;11.86;50.95;101605.38;5031207;28;20021;-54
2022/04/11 09:10:37;;;;;;;4.50;2.90;;;;;;;11.86;50.82;101618.28;5030453;28;20180;-53
2022/04/11 09:13:08;;;;;;;6.18;3.30;;;;;;;11.87;50.70;101614.00;5030825;28;20851;-55
2022/04/11 09:15:45;;;;;;;4.22;2.70;;;;;;;11.88;50.78;101609.69;5032227;28;20036;-52
2022/04/11 09:18:10;;;;;;;7.93;3.25;;;;;;;11.88;50.75;101601.94;5030260;28;20044;-54
2022/04/11 09:20:41;;;;;;;3.97;2.75;;;;;;;11.88;50.80;101596.78;5029827;28;20017;-51
2022/04/11 09:23:18;;;;;;;6.47;2.90;;;;;;;11.90;50.85;101589.97;5032679;28;20033;-53
2022/04/11 09:25:43;;;;;;;5.03;2.88;;;;;;;11.88;50.95;101594.19;5033186;28;20021;-54
2022/04/11 09:28:11;;;;;;;5.43;2.75;;;;;;;11.88;50.83;101586.44;5031844;28;20458;-55
2022/04/11 09:30:38;;;;;;;3.85;2.80;;;;;;;11.88;50.86;101578.69;5033354;28;20024;-52
2022/04/11 09:33:05;;;;;;;5.93;2.80;;;;;;;11.89;50.95;101573.59;5031824;28;20021;-52
2022/04/11 09:35:44;;;;;;;5.55;3.30;;;;;;;11.91;50.93;101566.78;5031574;28;20028;-53
2022/04/11 09:38:09;;;;;;;5.25;3.00;;;;;;;11.88;51.09;101568.38;5033424;28;20022;-55
2022/04/11 09:40:50;;;;;;;4.90;2.58;;;;;;;11.91;50.95;101563.31;5033211;28;20017;-53
2022/04/11 09:43:24;;;;;;;4.80;2.92;;;;;;;11.89;51.05;101565.84;5034080;28;20468;-53
2022/04/11 09:45:51;;;;;;;5.75;2.80;;;;;;;11.89;50.99;101559.78;5034379;28;20032;-54
2022/04/11 09:48:19;;;;;;;6.18;3.03;;;;;;;11.88;51.07;101558.94;5033702;28;20025;-55
2022/04/11 09:50:44;;;;;;;3.92;2.60;;;;;;;11.89;51.05;101557.22;5033624;28;20481;-55
2022/04/11 09:53:16;;;;;;;4.70;2.78;;;;;;;11.89;51.10;101560.69;5036871;28;20096;-52
2022/04/11 09:55:44;;;;;;;3.65;2.60;;;;;;;11.89;51.11;101552.06;5034121;28;20626;-51
2022/04/11 09:58:10;;;;;;;5.25;2.92;;;;;;;11.88;51.02;101546.03;5035133;28;20036;-51
2022/04/11 10:00:38;;;;;;;5.78;2.47;;;;;;;11.89;50.89;101539.13;5035174;28;20021;-55
2022/04/11 10:03:05;;;;;;;5.05;2.70;;;;;;;11.91;51.02;101537.50;5035951;28;20021;-51
2022/04/11 10:05:32;;;;;;;3.78;2.50;;;;;;;11.91;51.05;101545.25;5035218;28;20017;-52
2022/04/11 10:07:58;;;;;;;3.97;2.25;;;;;;;11.91;51.18;101538.38;5033227;28;20063;-52
2022/04/11 10:10:24;;;;;;;5.32;2.70;;;;;;;11.92;51.04;101536.69;5026641;28;20100;-53
2022/04/11 10:12:53;;;;;;;4.20;2.70;;;;;;;11.92;51.07;101534.97;5028341;28;20090;-54
2022/04/11 10:15:19;;;;;;;4.32;2.65;;;;;;;11.92;51.10;101536.69;5029145;28;20381;-52
2022/04/11 10:17:45;;;;;;;5.63;2.53;;;;;;;11.92;51.03;101539.25;5028138;28;20125;-52
2022/04/11 10:20:11;;;;;;;6.50;2.60;;;;;;;11.92;51.18;101534.09;5023389;28;20045;-53
2022/04/11 10:22:55;;;;;;;4.32;2.75;;;;;;;11.95;51.10;101529.03;5021746;28;20053;-55
2022/04/11 10:25:20;;;;;;;5.38;2.72;;;;;;;11.93;51.04;101533.25;5028737;28;20442;-51
2022/04/11 10:27:46;;;;;;;4.90;2.70;;;;;;;11.94;51.17;101532.44;5025127;28;20063;-54
2022/04/11 10:30:27;;;;;;;5.53;2.70;;;;;;;11.97;51.05;101522.25;5025642;28;20116;-53
2022/04/11 10:32:57;;;;;;;4.15;2.40;;;;;;;11.94;51.24;101524.69;5026229;28;20027;-53
2022/04/11 10:35:38;;;;;;;6.30;2.72;;;;;;;11.96;51.26;101530.81;5025562;28;20120;-54
2022/04/11 10:38:05;;;;;;;4.70;2.67;;;;;;;11.95;51.15;101523.84;5028691;28;20028;-52
2022/04/11 10:40:30;;;;;;;4.60;2.60;;;;;;;11.95;51.24;101529.91;5028210;28;20051;-54
2022/04/11 10:43:01;;;;;;;4.40;2.55;;;;;;;11.97;51.21;101525.69;5029209;28;20410;-55
2022/04/11 10:45:38;;;;;;;6.43;2.65;;;;;;;11.97;51.08;101517.09;5027828;28;20083;-56
2022/04/11 10:48:04;;;;;;;4.72;2.70;;;;;;;11.97;51.31;101522.25;5029770;28;20026;-52
2022/04/11 10:50:40;;;;;;;5.13;2.72;;;;;;;11.99;51.07;101515.41;5031780;28;20090;-55
2022/04/11 10:53:15;;;;;;;6.03;2.60;;;;;;;11.97;51.01;101505.03;5030343;28;20059;-54
2022/04/11 10:55:59;;;;;;;4.55;2.55;;;;;;;12.01;51.19;101506.03;5034381;28;20025;-53
2022/04/11 10:58:49;;;;;;;5.18;2.70;;;;;;;12.02;51.13;101497.44;5050587;28;20017;-53
2022/04/11 11:01:15;;;;;;;4.53;2.30;;;;;;;12.00;51.23;101501.69;5034384;28;20029;-54
2022/04/11 11:03:57;;;;;;;4.78;2.28;;;;;;;12.02;51.09;101493.16;5035786;28;20024;-52
2022/04/11 11:06:23;;;;;;;3.83;2.33;;;;;;;12.00;51.28;101492.22;5034297;28;20005;-51
2022/04/11 11:08:48;;;;;;;4.93;2.42;;;;;;;12.00;51.11;101492.22;5035345;28;20039;-51
2022/04/11 11:11:25;;;;;;;3.80;2.22;;;;;;;12.02;51.20;101490.56;5038120;28;20438;-51
2022/04/11 11:13:52;;;;;;;5.53;2.60;;;;;;;12.01;51.10;101467.28;5037593;28;20103;-52
2022/04/11 11:16:17;;;;;;;5.72;2.50;;;;;;;12.02;51.09;101469.03;5037403;28;20412;-53
2022/04/11 11:18:46;;;;;;;4.18;2.40;;;;;;;12.02;51.25;101469.03;5038492;28;20442;-51
2022/04/11 11:21:21;;;;;;;4.55;2.58;;;;;;;12.03;51.33;101465.59;5038872;28;20021;-53